sensor_id;sensor_type;location;lat;lon;timestamp;P1;durP1;ratioP1;P2;durP2;ratioP2
49626;SDS011;35527;54.616;39.786;2024-02-16T00:00:28;6.93;;;2.70;;
49626;SDS011;35527;54.616;39.786;2024-02-16T00:03:31;10.75;;;3.75;;
49626;SDS011;35527;54.616;39.786;2024-02-16T00:06:34;12.00;;;4.15;;
49626;SDS011;35527;54.616;39.786;2024-02-16T00:09:38;13.82;;;4.85;;
49626;SDS011;35527;54.616;39.786;2024-02-16T00:12:45;10.48;;;4.75;;
49626;SDS011;35527;54.616;39.786;2024-02-16T00:15:48;11.50;;;4.45;;
49626;SDS011;35527;54.616;39.786;2024-02-16T00:18:50;9.48;;;4.40;;
49626;SDS011;35527;54.616;39.786;2024-02-16T00:21:56;14.13;;;4.13;;
49626;SDS011;35527;54.616;39.786;2024-02-16T00:25:00;22.65;;;5.13;;
49626;SDS011;35527;54.616;39.786;2024-02-16T00:28:04;8.95;;;3.20;;
49626;SDS011;35527;54.616;39.786;2024-02-16T00:31:07;9.68;;;4.13;;
49626;SDS011;35527;54.616;39.786;2024-02-16T00:34:17;8.88;;;4.47;;
49626;SDS011;35527;54.616;39.786;2024-02-16T00:37:19;18.83;;;4.68;;
49626;SDS011;35527;54.616;39.786;2024-02-16T00:40:21;7.55;;;3.22;;
49626;SDS011;35527;54.616;39.786;2024-02-16T00:43:25;7.80;;;3.03;;
49626;SDS011;35527;54.616;39.786;2024-02-16T00:46:28;10.63;;;4.63;;
49626;SDS011;35527;54.616;39.786;2024-02-16T00:49:32;13.48;;;5.20;;
49626;SDS011;35527;54.616;39.786;2024-02-16T00:52:34;12.25;;;4.57;;
49626;SDS011;35527;54.616;39.786;2024-02-16T00:55:38;12.30;;;4.03;;
49626;SDS011;35527;54.616;39.786;2024-02-16T00:58:45;8.20;;;4.22;;
49626;SDS011;35527;54.616;39.786;2024-02-16T01:01:47;10.50;;;4.85;;
49626;SDS011;35527;54.616;39.786;2024-02-16T01:04:50;9.48;;;4.63;;
49626;SDS011;35527;54.616;39.786;2024-02-16T01:07:53;13.45;;;5.10;;
49626;SDS011;35527;54.616;39.786;2024-02-16T01:11:05;11.93;;;5.35;;
49626;SDS011;35527;54.616;39.786;2024-02-16T01:14:08;12.45;;;5.30;;
49626;SDS011;35527;54.616;39.786;2024-02-16T01:17:11;12.20;;;3.75;;
49626;SDS011;35527;54.616;39.786;2024-02-16T01:20:15;12.35;;;4.75;;
49626;SDS011;35527;54.616;39.786;2024-02-16T01:23:18;15.73;;;3.17;;
49626;SDS011;35527;54.616;39.786;2024-02-16T01:26:21;12.98;;;4.70;;
49626;SDS011;35527;54.616;39.786;2024-02-16T01:29:24;12.77;;;4.60;;
49626;SDS011;35527;54.616;39.786;2024-02-16T01:32:26;15.88;;;6.32;;
49626;SDS011;35527;54.616;39.786;2024-02-16T01:35:31;7.85;;;3.88;;
49626;SDS011;35527;54.616;39.786;2024-02-16T01:38:34;8.95;;;5.03;;
49626;SDS011;35527;54.616;39.786;2024-02-16T01:41:40;11.35;;;4.13;;
49626;SDS011;35527;54.616;39.786;2024-02-16T01:44:43;10.60;;;4.68;;
49626;SDS011;35527;54.616;39.786;2024-02-16T01:47:51;13.57;;;5.57;;
49626;SDS011;35527;54.616;39.786;2024-02-16T01:50:55;13.35;;;4.70;;
49626;SDS011;35527;54.616;39.786;2024-02-16T01:53:58;16.85;;;5.75;;
49626;SDS011;35527;54.616;39.786;2024-02-16T01:57:00;10.52;;;5.35;;
49626;SDS011;35527;54.616;39.786;2024-02-16T02:00:04;11.13;;;4.55;;
49626;SDS011;35527;54.616;39.786;2024-02-16T02:03:10;11.45;;;4.85;;
49626;SDS011;35527;54.616;39.786;2024-02-16T02:06:15;11.00;;;4.57;;
49626;SDS011;35527;54.616;39.786;2024-02-16T02:09:17;9.45;;;4.03;;
49626;SDS011;35527;54.616;39.786;2024-02-16T02:12:22;11.43;;;4.05;;
49626;SDS011;35527;54.616;39.786;2024-02-16T02:15:26;15.97;;;6.63;;
49626;SDS011;35527;54.616;39.786;2024-02-16T02:18:29;11.38;;;4.72;;
49626;SDS011;35527;54.616;39.786;2024-02-16T02:21:32;8.15;;;3.25;;
49626;SDS011;35527;54.616;39.786;2024-02-16T02:24:35;9.32;;;4.85;;
49626;SDS011;35527;54.616;39.786;2024-02-16T02:27:39;12.70;;;4.53;;
49626;SDS011;35527;54.616;39.786;2024-02-16T02:30:42;11.75;;;5.07;;
49626;SDS011;35527;54.616;39.786;2024-02-16T02:33:48;8.75;;;3.90;;
49626;SDS011;35527;54.616;39.786;2024-02-16T02:36:58;10.43;;;5.25;;
49626;SDS011;35527;54.616;39.786;2024-02-16T02:40:01;12.00;;;5.18;;
49626;SDS011;35527;54.616;39.786;2024-02-16T02:43:03;18.50;;;6.53;;
49626;SDS011;35527;54.616;39.786;2024-02-16T02:46:14;11.65;;;4.85;;
49626;SDS011;35527;54.616;39.786;2024-02-16T02:49:19;12.38;;;5.50;;
49626;SDS011;35527;54.616;39.786;2024-02-16T02:52:21;11.60;;;4.85;;
49626;SDS011;35527;54.616;39.786;2024-02-16T02:55:24;8.73;;;4.32;;
49626;SDS011;35527;54.616;39.786;2024-02-16T03:01:38;10.40;;;4.38;;
49626;SDS011;35527;54.616;39.786;2024-02-16T03:04:40;17.20;;;5.32;;
49626;SDS011;35527;54.616;39.786;2024-02-16T03:07:43;9.77;;;4.78;;
49626;SDS011;35527;54.616;39.786;2024-02-16T03:10:46;11.05;;;4.38;;
49626;SDS011;35527;54.616;39.786;2024-02-16T03:13:50;10.40;;;4.63;;
49626;SDS011;35527;54.616;39.786;2024-02-16T03:16:52;11.63;;;5.10;;
49626;SDS011;35527;54.616;39.786;2024-02-16T03:19:55;12.95;;;6.43;;
49626;SDS011;35527;54.616;39.786;2024-02-16T03:22:59;13.52;;;7.18;;
49626;SDS011;35527;54.616;39.786;2024-02-16T03:26:03;14.00;;;5.82;;
49626;SDS011;35527;54.616;39.786;2024-02-16T03:32:09;8.25;;;3.72;;
49626;SDS011;35527;54.616;39.786;2024-02-16T03:35:12;14.25;;;6.68;;
49626;SDS011;35527;54.616;39.786;2024-02-16T03:38:14;12.80;;;5.57;;
49626;SDS011;35527;54.616;39.786;2024-02-16T03:41:18;9.00;;;4.45;;
49626;SDS011;35527;54.616;39.786;2024-02-16T03:44:21;15.90;;;5.57;;
49626;SDS011;35527;54.616;39.786;2024-02-16T03:47:23;13.07;;;5.47;;
49626;SDS011;35527;54.616;39.786;2024-02-16T03:50:52;11.65;;;5.32;;
49626;SDS011;35527;54.616;39.786;2024-02-16T03:53:57;12.73;;;5.57;;
49626;SDS011;35527;54.616;39.786;2024-02-16T03:56:59;17.58;;;3.78;;
49626;SDS011;35527;54.616;39.786;2024-02-16T04:00:03;12.48;;;4.50;;
49626;SDS011;35527;54.616;39.786;2024-02-16T04:03:16;7.82;;;2.88;;
49626;SDS011;35527;54.616;39.786;2024-02-16T04:06:23;13.60;;;5.68;;
49626;SDS011;35527;54.616;39.786;2024-02-16T04:09:27;15.52;;;5.50;;
49626;SDS011;35527;54.616;39.786;2024-02-16T04:12:33;17.63;;;7.47;;
49626;SDS011;35527;54.616;39.786;2024-02-16T04:15:40;6.53;;;3.08;;
49626;SDS011;35527;54.616;39.786;2024-02-16T04:18:45;11.73;;;5.93;;
49626;SDS011;35527;54.616;39.786;2024-02-16T04:21:48;11.57;;;4.85;;
49626;SDS011;35527;54.616;39.786;2024-02-16T04:24:52;9.90;;;3.88;;
49626;SDS011;35527;54.616;39.786;2024-02-16T04:27:58;11.48;;;4.95;;
49626;SDS011;35527;54.616;39.786;2024-02-16T04:31:02;10.27;;;5.20;;
49626;SDS011;35527;54.616;39.786;2024-02-16T04:34:06;17.33;;;6.10;;
49626;SDS011;35527;54.616;39.786;2024-02-16T04:37:10;11.13;;;4.22;;
49626;SDS011;35527;54.616;39.786;2024-02-16T04:40:15;10.65;;;4.88;;
49626;SDS011;35527;54.616;39.786;2024-02-16T04:43:19;9.73;;;4.95;;
49626;SDS011;35527;54.616;39.786;2024-02-16T04:46:24;9.73;;;3.92;;
49626;SDS011;35527;54.616;39.786;2024-02-16T04:49:26;14.18;;;6.03;;
49626;SDS011;35527;54.616;39.786;2024-02-16T04:52:37;10.40;;;5.90;;
49626;SDS011;35527;54.616;39.786;2024-02-16T04:55:43;12.48;;;6.28;;
49626;SDS011;35527;54.616;39.786;2024-02-16T04:58:45;14.80;;;6.47;;
49626;SDS011;35527;54.616;39.786;2024-02-16T05:01:49;14.48;;;4.75;;
49626;SDS011;35527;54.616;39.786;2024-02-16T05:04:55;8.35;;;3.65;;
49626;SDS011;35527;54.616;39.786;2024-02-16T05:07:59;8.45;;;3.92;;
49626;SDS011;35527;54.616;39.786;2024-02-16T05:11:02;11.02;;;5.18;;
49626;SDS011;35527;54.616;39.786;2024-02-16T05:14:05;10.55;;;4.72;;
49626;SDS011;35527;54.616;39.786;2024-02-16T05:17:09;9.40;;;4.15;;
49626;SDS011;35527;54.616;39.786;2024-02-16T05:20:12;9.90;;;3.78;;
49626;SDS011;35527;54.616;39.786;2024-02-16T05:23:18;10.80;;;4.13;;
49626;SDS011;35527;54.616;39.786;2024-02-16T05:26:21;11.23;;;5.68;;
49626;SDS011;35527;54.616;39.786;2024-02-16T05:29:30;12.65;;;6.10;;
49626;SDS011;35527;54.616;39.786;2024-02-16T05:32:34;9.48;;;4.60;;
49626;SDS011;35527;54.616;39.786;2024-02-16T05:35:36;10.20;;;4.35;;
49626;SDS011;35527;54.616;39.786;2024-02-16T05:38:43;12.10;;;4.07;;
49626;SDS011;35527;54.616;39.786;2024-02-16T05:41:47;9.85;;;4.15;;
49626;SDS011;35527;54.616;39.786;2024-02-16T05:44:52;8.13;;;3.97;;
49626;SDS011;35527;54.616;39.786;2024-02-16T05:47:55;8.82;;;3.20;;
49626;SDS011;35527;54.616;39.786;2024-02-16T05:50:59;10.30;;;4.25;;
49626;SDS011;35527;54.616;39.786;2024-02-16T05:57:06;8.48;;;3.60;;
49626;SDS011;35527;54.616;39.786;2024-02-16T06:00:15;10.25;;;4.45;;
49626;SDS011;35527;54.616;39.786;2024-02-16T06:03:21;9.20;;;3.95;;
49626;SDS011;35527;54.616;39.786;2024-02-16T06:06:35;5.97;;;2.50;;
49626;SDS011;35527;54.616;39.786;2024-02-16T06:09:39;7.70;;;3.38;;
49626;SDS011;35527;54.616;39.786;2024-02-16T06:12:45;17.20;;;5.30;;
49626;SDS011;35527;54.616;39.786;2024-02-16T06:15:48;8.73;;;3.65;;
49626;SDS011;35527;54.616;39.786;2024-02-16T06:18:53;8.15;;;3.42;;
49626;SDS011;35527;54.616;39.786;2024-02-16T06:21:57;9.70;;;3.33;;
49626;SDS011;35527;54.616;39.786;2024-02-16T06:25:00;8.73;;;3.43;;
49626;SDS011;35527;54.616;39.786;2024-02-16T06:28:04;7.03;;;3.08;;
49626;SDS011;35527;54.616;39.786;2024-02-16T06:31:06;12.32;;;4.05;;
49626;SDS011;35527;54.616;39.786;2024-02-16T06:34:14;6.43;;;3.10;;
49626;SDS011;35527;54.616;39.786;2024-02-16T06:37:16;7.68;;;3.10;;
49626;SDS011;35527;54.616;39.786;2024-02-16T06:40:23;7.50;;;2.90;;
49626;SDS011;35527;54.616;39.786;2024-02-16T06:43:28;8.48;;;3.88;;
49626;SDS011;35527;54.616;39.786;2024-02-16T06:46:33;3.53;;;2.05;;
49626;SDS011;35527;54.616;39.786;2024-02-16T06:49:39;5.05;;;2.38;;
49626;SDS011;35527;54.616;39.786;2024-02-16T06:52:43;6.70;;;3.13;;
49626;SDS011;35527;54.616;39.786;2024-02-16T06:55:45;8.07;;;3.22;;
49626;SDS011;35527;54.616;39.786;2024-02-16T06:58:54;8.52;;;3.25;;
49626;SDS011;35527;54.616;39.786;2024-02-16T07:01:58;7.47;;;3.45;;
49626;SDS011;35527;54.616;39.786;2024-02-16T07:05:06;6.00;;;3.05;;
49626;SDS011;35527;54.616;39.786;2024-02-16T07:08:08;8.95;;;2.75;;
49626;SDS011;35527;54.616;39.786;2024-02-16T07:11:15;7.22;;;2.83;;
49626;SDS011;35527;54.616;39.786;2024-02-16T07:14:17;8.02;;;3.67;;
49626;SDS011;35527;54.616;39.786;2024-02-16T07:17:21;7.47;;;2.85;;
49626;SDS011;35527;54.616;39.786;2024-02-16T07:20:23;6.57;;;2.75;;
49626;SDS011;35527;54.616;39.786;2024-02-16T07:23:29;6.20;;;2.38;;
49626;SDS011;35527;54.616;39.786;2024-02-16T07:26:34;4.35;;;2.15;;
49626;SDS011;35527;54.616;39.786;2024-02-16T07:29:42;9.07;;;3.47;;
49626;SDS011;35527;54.616;39.786;2024-02-16T07:32:49;9.52;;;3.70;;
49626;SDS011;35527;54.616;39.786;2024-02-16T07:35:55;10.07;;;3.78;;
49626;SDS011;35527;54.616;39.786;2024-02-16T07:39:01;6.63;;;3.33;;
49626;SDS011;35527;54.616;39.786;2024-02-16T07:42:05;8.98;;;3.97;;
49626;SDS011;35527;54.616;39.786;2024-02-16T07:45:09;12.02;;;3.35;;
49626;SDS011;35527;54.616;39.786;2024-02-16T07:48:20;7.82;;;3.25;;
49626;SDS011;35527;54.616;39.786;2024-02-16T07:51:24;6.63;;;2.92;;
49626;SDS011;35527;54.616;39.786;2024-02-16T07:54:28;8.05;;;3.65;;
49626;SDS011;35527;54.616;39.786;2024-02-16T07:57:34;8.32;;;3.50;;
49626;SDS011;35527;54.616;39.786;2024-02-16T08:00:38;9.25;;;4.47;;
49626;SDS011;35527;54.616;39.786;2024-02-16T08:03:40;6.55;;;3.65;;
49626;SDS011;35527;54.616;39.786;2024-02-16T08:06:44;7.35;;;3.80;;
49626;SDS011;35527;54.616;39.786;2024-02-16T08:09:47;13.10;;;4.38;;
49626;SDS011;35527;54.616;39.786;2024-02-16T08:12:52;8.48;;;3.60;;
49626;SDS011;35527;54.616;39.786;2024-02-16T08:15:54;10.73;;;3.60;;
49626;SDS011;35527;54.616;39.786;2024-02-16T08:18:59;4.40;;;2.15;;
49626;SDS011;35527;54.616;39.786;2024-02-16T08:22:02;9.35;;;3.53;;
49626;SDS011;35527;54.616;39.786;2024-02-16T08:25:08;8.88;;;3.65;;
49626;SDS011;35527;54.616;39.786;2024-02-16T08:28:11;5.82;;;2.20;;
49626;SDS011;35527;54.616;39.786;2024-02-16T08:31:17;8.03;;;3.90;;
49626;SDS011;35527;54.616;39.786;2024-02-16T08:34:20;8.18;;;3.13;;
49626;SDS011;35527;54.616;39.786;2024-02-16T08:37:25;4.65;;;2.03;;
49626;SDS011;35527;54.616;39.786;2024-02-16T08:40:27;5.50;;;2.30;;
49626;SDS011;35527;54.616;39.786;2024-02-16T08:43:30;5.93;;;2.47;;
49626;SDS011;35527;54.616;39.786;2024-02-16T08:46:34;5.68;;;3.03;;
49626;SDS011;35527;54.616;39.786;2024-02-16T08:49:38;4.97;;;2.05;;
49626;SDS011;35527;54.616;39.786;2024-02-16T08:52:41;5.13;;;2.28;;
49626;SDS011;35527;54.616;39.786;2024-02-16T08:55:44;7.10;;;2.92;;
49626;SDS011;35527;54.616;39.786;2024-02-16T08:58:46;6.38;;;2.67;;
49626;SDS011;35527;54.616;39.786;2024-02-16T09:01:53;6.43;;;2.78;;
49626;SDS011;35527;54.616;39.786;2024-02-16T09:04:56;6.28;;;2.92;;
49626;SDS011;35527;54.616;39.786;2024-02-16T09:07:58;5.55;;;2.28;;
49626;SDS011;35527;54.616;39.786;2024-02-16T09:11:01;5.75;;;3.60;;
49626;SDS011;35527;54.616;39.786;2024-02-16T09:14:09;7.25;;;3.03;;
49626;SDS011;35527;54.616;39.786;2024-02-16T09:17:12;8.38;;;3.00;;
49626;SDS011;35527;54.616;39.786;2024-02-16T09:20:15;5.30;;;2.05;;
49626;SDS011;35527;54.616;39.786;2024-02-16T09:23:25;11.38;;;3.63;;
49626;SDS011;35527;54.616;39.786;2024-02-16T09:26:28;7.88;;;3.58;;
49626;SDS011;35527;54.616;39.786;2024-02-16T09:29:36;8.68;;;3.63;;
49626;SDS011;35527;54.616;39.786;2024-02-16T09:32:39;5.63;;;2.58;;
49626;SDS011;35527;54.616;39.786;2024-02-16T09:35:44;8.60;;;3.80;;
49626;SDS011;35527;54.616;39.786;2024-02-16T09:38:49;6.97;;;3.67;;
49626;SDS011;35527;54.616;39.786;2024-02-16T09:41:51;7.22;;;3.00;;
49626;SDS011;35527;54.616;39.786;2024-02-16T09:44:56;8.00;;;3.40;;
49626;SDS011;35527;54.616;39.786;2024-02-16T09:48:01;7.95;;;2.50;;
49626;SDS011;35527;54.616;39.786;2024-02-16T09:51:08;10.40;;;4.47;;
49626;SDS011;35527;54.616;39.786;2024-02-16T09:54:11;7.18;;;3.50;;
49626;SDS011;35527;54.616;39.786;2024-02-16T09:57:18;9.85;;;4.38;;
49626;SDS011;35527;54.616;39.786;2024-02-16T10:00:21;8.13;;;2.83;;
49626;SDS011;35527;54.616;39.786;2024-02-16T10:03:28;6.75;;;2.50;;
49626;SDS011;35527;54.616;39.786;2024-02-16T10:06:30;11.20;;;3.00;;
49626;SDS011;35527;54.616;39.786;2024-02-16T10:09:34;7.70;;;2.60;;
49626;SDS011;35527;54.616;39.786;2024-02-16T10:12:38;8.38;;;3.38;;
49626;SDS011;35527;54.616;39.786;2024-02-16T10:15:42;7.00;;;2.83;;
49626;SDS011;35527;54.616;39.786;2024-02-16T10:18:45;6.38;;;2.95;;
49626;SDS011;35527;54.616;39.786;2024-02-16T10:21:50;9.85;;;3.28;;
49626;SDS011;35527;54.616;39.786;2024-02-16T10:24:52;6.82;;;2.72;;
49626;SDS011;35527;54.616;39.786;2024-02-16T10:27:58;7.68;;;3.83;;
49626;SDS011;35527;54.616;39.786;2024-02-16T10:31:04;7.13;;;3.28;;
49626;SDS011;35527;54.616;39.786;2024-02-16T10:34:09;7.27;;;3.00;;
49626;SDS011;35527;54.616;39.786;2024-02-16T10:37:13;7.72;;;2.35;;
49626;SDS011;35527;54.616;39.786;2024-02-16T10:40:19;7.63;;;3.30;;
49626;SDS011;35527;54.616;39.786;2024-02-16T10:43:23;8.10;;;2.63;;
49626;SDS011;35527;54.616;39.786;2024-02-16T10:46:26;9.88;;;3.53;;
49626;SDS011;35527;54.616;39.786;2024-02-16T10:49:30;7.43;;;3.28;;
49626;SDS011;35527;54.616;39.786;2024-02-16T10:52:32;4.88;;;2.38;;
49626;SDS011;35527;54.616;39.786;2024-02-16T10:55:37;2.63;;;1.65;;
49626;SDS011;35527;54.616;39.786;2024-02-16T10:58:40;6.82;;;2.70;;
49626;SDS011;35527;54.616;39.786;2024-02-16T11:01:44;7.35;;;2.70;;
49626;SDS011;35527;54.616;39.786;2024-02-16T11:04:48;10.90;;;3.10;;
49626;SDS011;35527;54.616;39.786;2024-02-16T11:07:59;9.70;;;3.90;;
49626;SDS011;35527;54.616;39.786;2024-02-16T11:11:02;7.65;;;2.72;;
49626;SDS011;35527;54.616;39.786;2024-02-16T11:14:14;6.97;;;3.63;;
49626;SDS011;35527;54.616;39.786;2024-02-16T11:17:22;12.85;;;3.20;;
49626;SDS011;35527;54.616;39.786;2024-02-16T11:20:24;7.93;;;2.63;;
49626;SDS011;35527;54.616;39.786;2024-02-16T11:23:29;6.60;;;2.47;;
49626;SDS011;35527;54.616;39.786;2024-02-16T11:26:42;7.45;;;3.17;;
49626;SDS011;35527;54.616;39.786;2024-02-16T11:29:47;9.35;;;3.60;;
49626;SDS011;35527;54.616;39.786;2024-02-16T11:32:51;7.53;;;2.78;;
49626;SDS011;35527;54.616;39.786;2024-02-16T11:35:55;7.68;;;3.35;;
49626;SDS011;35527;54.616;39.786;2024-02-16T11:39:00;5.75;;;2.53;;
49626;SDS011;35527;54.616;39.786;2024-02-16T11:42:08;7.55;;;3.53;;
49626;SDS011;35527;54.616;39.786;2024-02-16T11:45:13;9.02;;;3.00;;
49626;SDS011;35527;54.616;39.786;2024-02-16T11:48:20;13.98;;;3.80;;
49626;SDS011;35527;54.616;39.786;2024-02-16T11:51:29;7.93;;;2.92;;
49626;SDS011;35527;54.616;39.786;2024-02-16T11:54:34;7.53;;;3.22;;
49626;SDS011;35527;54.616;39.786;2024-02-16T11:57:38;6.97;;;3.08;;
49626;SDS011;35527;54.616;39.786;2024-02-16T12:00:41;5.90;;;2.63;;
49626;SDS011;35527;54.616;39.786;2024-02-16T12:03:47;6.25;;;2.92;;
49626;SDS011;35527;54.616;39.786;2024-02-16T12:06:55;6.03;;;2.83;;
49626;SDS011;35527;54.616;39.786;2024-02-16T12:10:02;10.00;;;2.17;;
49626;SDS011;35527;54.616;39.786;2024-02-16T12:13:08;5.35;;;2.13;;
49626;SDS011;35527;54.616;39.786;2024-02-16T12:16:12;4.53;;;2.40;;
49626;SDS011;35527;54.616;39.786;2024-02-16T12:19:18;7.32;;;2.60;;
49626;SDS011;35527;54.616;39.786;2024-02-16T12:22:20;5.97;;;2.57;;
49626;SDS011;35527;54.616;39.786;2024-02-16T12:25:25;5.45;;;2.50;;
49626;SDS011;35527;54.616;39.786;2024-02-16T12:28:30;6.82;;;2.50;;
49626;SDS011;35527;54.616;39.786;2024-02-16T12:31:39;12.75;;;2.35;;
49626;SDS011;35527;54.616;39.786;2024-02-16T12:37:46;10.52;;;3.00;;
49626;SDS011;35527;54.616;39.786;2024-02-16T12:40:50;6.93;;;2.37;;
49626;SDS011;35527;54.616;39.786;2024-02-16T12:43:58;11.02;;;3.38;;
49626;SDS011;35527;54.616;39.786;2024-02-16T12:47:02;9.20;;;2.08;;
49626;SDS011;35527;54.616;39.786;2024-02-16T12:50:05;6.18;;;2.55;;
49626;SDS011;35527;54.616;39.786;2024-02-16T12:53:09;8.32;;;3.45;;
49626;SDS011;35527;54.616;39.786;2024-02-16T12:56:14;5.28;;;2.90;;
49626;SDS011;35527;54.616;39.786;2024-02-16T12:59:17;20.40;;;3.38;;
49626;SDS011;35527;54.616;39.786;2024-02-16T13:02:19;7.72;;;2.88;;
49626;SDS011;35527;54.616;39.786;2024-02-16T13:05:23;6.80;;;2.92;;
49626;SDS011;35527;54.616;39.786;2024-02-16T13:08:29;6.18;;;2.75;;
49626;SDS011;35527;54.616;39.786;2024-02-16T13:11:32;6.05;;;3.08;;
49626;SDS011;35527;54.616;39.786;2024-02-16T13:14:37;8.90;;;3.07;;
49626;SDS011;35527;54.616;39.786;2024-02-16T13:17:40;7.63;;;2.85;;
49626;SDS011;35527;54.616;39.786;2024-02-16T13:20:44;5.40;;;2.78;;
49626;SDS011;35527;54.616;39.786;2024-02-16T13:23:47;5.57;;;2.90;;
49626;SDS011;35527;54.616;39.786;2024-02-16T13:26:50;6.80;;;2.97;;
49626;SDS011;35527;54.616;39.786;2024-02-16T13:29:59;6.82;;;2.55;;
49626;SDS011;35527;54.616;39.786;2024-02-16T13:33:05;8.43;;;2.75;;
49626;SDS011;35527;54.616;39.786;2024-02-16T13:36:08;5.38;;;2.33;;
49626;SDS011;35527;54.616;39.786;2024-02-16T13:39:13;9.02;;;3.42;;
49626;SDS011;35527;54.616;39.786;2024-02-16T13:42:18;6.18;;;3.05;;
49626;SDS011;35527;54.616;39.786;2024-02-16T13:45:32;6.88;;;2.60;;
49626;SDS011;35527;54.616;39.786;2024-02-16T13:48:51;6.53;;;2.13;;
49626;SDS011;35527;54.616;39.786;2024-02-16T13:51:55;8.18;;;2.78;;
49626;SDS011;35527;54.616;39.786;2024-02-16T13:55:01;7.70;;;2.97;;
49626;SDS011;35527;54.616;39.786;2024-02-16T13:58:08;5.65;;;2.20;;
49626;SDS011;35527;54.616;39.786;2024-02-16T14:01:10;6.05;;;2.50;;
49626;SDS011;35527;54.616;39.786;2024-02-16T14:04:14;7.03;;;3.22;;
49626;SDS011;35527;54.616;39.786;2024-02-16T14:07:19;5.72;;;2.38;;
49626;SDS011;35527;54.616;39.786;2024-02-16T14:10:24;8.05;;;3.22;;
49626;SDS011;35527;54.616;39.786;2024-02-16T14:13:26;6.50;;;3.40;;
49626;SDS011;35527;54.616;39.786;2024-02-16T14:16:29;5.88;;;2.42;;
49626;SDS011;35527;54.616;39.786;2024-02-16T14:19:35;9.32;;;3.08;;
49626;SDS011;35527;54.616;39.786;2024-02-16T14:22:39;6.57;;;3.08;;
49626;SDS011;35527;54.616;39.786;2024-02-16T14:25:42;8.10;;;3.17;;
49626;SDS011;35527;54.616;39.786;2024-02-16T14:31:52;7.22;;;2.85;;
49626;SDS011;35527;54.616;39.786;2024-02-16T14:35:00;8.45;;;3.53;;
49626;SDS011;35527;54.616;39.786;2024-02-16T14:38:04;5.38;;;2.60;;
49626;SDS011;35527;54.616;39.786;2024-02-16T14:41:09;8.75;;;3.55;;
49626;SDS011;35527;54.616;39.786;2024-02-16T14:44:15;9.38;;;3.72;;
49626;SDS011;35527;54.616;39.786;2024-02-16T14:47:20;9.73;;;3.40;;
49626;SDS011;35527;54.616;39.786;2024-02-16T14:50:26;5.38;;;2.78;;
49626;SDS011;35527;54.616;39.786;2024-02-16T14:53:29;3.88;;;1.85;;
49626;SDS011;35527;54.616;39.786;2024-02-16T14:56:34;6.07;;;2.65;;
49626;SDS011;35527;54.616;39.786;2024-02-16T14:59:42;11.73;;;4.05;;
49626;SDS011;35527;54.616;39.786;2024-02-16T15:02:45;6.25;;;3.33;;
49626;SDS011;35527;54.616;39.786;2024-02-16T15:05:48;3.72;;;1.95;;
49626;SDS011;35527;54.616;39.786;2024-02-16T15:08:52;4.85;;;2.33;;
49626;SDS011;35527;54.616;39.786;2024-02-16T15:11:59;9.40;;;3.05;;
49626;SDS011;35527;54.616;39.786;2024-02-16T15:18:06;17.20;;;3.17;;
49626;SDS011;35527;54.616;39.786;2024-02-16T15:21:14;10.80;;;4.13;;
49626;SDS011;35527;54.616;39.786;2024-02-16T15:24:48;9.88;;;3.92;;
49626;SDS011;35527;54.616;39.786;2024-02-16T15:27:50;10.15;;;4.13;;
49626;SDS011;35527;54.616;39.786;2024-02-16T15:30:54;8.45;;;4.88;;
49626;SDS011;35527;54.616;39.786;2024-02-16T15:34:00;12.45;;;3.30;;
49626;SDS011;35527;54.616;39.786;2024-02-16T15:37:04;8.90;;;2.92;;
49626;SDS011;35527;54.616;39.786;2024-02-16T15:40:07;9.45;;;3.22;;
49626;SDS011;35527;54.616;39.786;2024-02-16T15:43:11;16.38;;;4.78;;
49626;SDS011;35527;54.616;39.786;2024-02-16T15:46:14;11.30;;;3.65;;
49626;SDS011;35527;54.616;39.786;2024-02-16T15:49:20;5.68;;;2.35;;
49626;SDS011;35527;54.616;39.786;2024-02-16T15:52:23;9.27;;;3.38;;
49626;SDS011;35527;54.616;39.786;2024-02-16T15:55:26;9.80;;;3.97;;
49626;SDS011;35527;54.616;39.786;2024-02-16T15:58:30;6.80;;;2.70;;
49626;SDS011;35527;54.616;39.786;2024-02-16T16:01:35;8.35;;;4.10;;
49626;SDS011;35527;54.616;39.786;2024-02-16T16:04:39;13.63;;;3.53;;
49626;SDS011;35527;54.616;39.786;2024-02-16T16:07:44;8.48;;;3.28;;
49626;SDS011;35527;54.616;39.786;2024-02-16T16:10:48;9.18;;;3.40;;
49626;SDS011;35527;54.616;39.786;2024-02-16T16:13:51;4.22;;;2.20;;
49626;SDS011;35527;54.616;39.786;2024-02-16T16:16:53;5.05;;;2.88;;
49626;SDS011;35527;54.616;39.786;2024-02-16T16:19:55;7.20;;;2.58;;
49626;SDS011;35527;54.616;39.786;2024-02-16T16:26:04;5.68;;;2.72;;
49626;SDS011;35527;54.616;39.786;2024-02-16T16:29:07;11.15;;;4.78;;
49626;SDS011;35527;54.616;39.786;2024-02-16T16:32:09;8.60;;;2.83;;
49626;SDS011;35527;54.616;39.786;2024-02-16T16:35:13;25.50;;;2.90;;
49626;SDS011;35527;54.616;39.786;2024-02-16T16:38:20;7.55;;;2.95;;
49626;SDS011;35527;54.616;39.786;2024-02-16T16:41:23;10.10;;;3.20;;
49626;SDS011;35527;54.616;39.786;2024-02-16T16:44:28;9.20;;;3.70;;
49626;SDS011;35527;54.616;39.786;2024-02-16T16:47:31;11.40;;;2.90;;
49626;SDS011;35527;54.616;39.786;2024-02-16T16:53:41;4.82;;;1.98;;
49626;SDS011;35527;54.616;39.786;2024-02-16T16:56:44;11.95;;;2.72;;
49626;SDS011;35527;54.616;39.786;2024-02-16T16:59:51;5.85;;;2.30;;
49626;SDS011;35527;54.616;39.786;2024-02-16T17:02:54;5.55;;;1.60;;
49626;SDS011;35527;54.616;39.786;2024-02-16T17:05:58;7.55;;;2.25;;
49626;SDS011;35527;54.616;39.786;2024-02-16T17:09:03;6.45;;;2.70;;
49626;SDS011;35527;54.616;39.786;2024-02-16T17:12:09;7.85;;;2.15;;
49626;SDS011;35527;54.616;39.786;2024-02-16T17:15:20;8.75;;;3.97;;
49626;SDS011;35527;54.616;39.786;2024-02-16T17:18:27;9.20;;;3.75;;
49626;SDS011;35527;54.616;39.786;2024-02-16T17:21:36;19.25;;;5.35;;
49626;SDS011;35527;54.616;39.786;2024-02-16T17:24:39;12.90;;;3.75;;
49626;SDS011;35527;54.616;39.786;2024-02-16T17:27:41;9.48;;;3.90;;
49626;SDS011;35527;54.616;39.786;2024-02-16T17:33:52;11.35;;;4.45;;
49626;SDS011;35527;54.616;39.786;2024-02-16T17:36:55;10.68;;;4.18;;
49626;SDS011;35527;54.616;39.786;2024-02-16T17:39:59;9.27;;;4.45;;
49626;SDS011;35527;54.616;39.786;2024-02-16T17:43:02;10.77;;;4.57;;
49626;SDS011;35527;54.616;39.786;2024-02-16T17:46:08;13.10;;;5.55;;
49626;SDS011;35527;54.616;39.786;2024-02-16T17:49:12;8.25;;;3.78;;
49626;SDS011;35527;54.616;39.786;2024-02-16T17:52:15;10.98;;;4.53;;
49626;SDS011;35527;54.616;39.786;2024-02-16T17:55:18;13.13;;;5.15;;
49626;SDS011;35527;54.616;39.786;2024-02-16T17:58:22;12.82;;;5.47;;
49626;SDS011;35527;54.616;39.786;2024-02-16T18:01:25;11.35;;;4.85;;
49626;SDS011;35527;54.616;39.786;2024-02-16T18:04:28;12.25;;;4.47;;
49626;SDS011;35527;54.616;39.786;2024-02-16T18:07:33;9.18;;;4.57;;
49626;SDS011;35527;54.616;39.786;2024-02-16T18:10:36;11.85;;;4.95;;
49626;SDS011;35527;54.616;39.786;2024-02-16T18:16:44;12.73;;;3.58;;
49626;SDS011;35527;54.616;39.786;2024-02-16T18:19:46;7.07;;;3.13;;
49626;SDS011;35527;54.616;39.786;2024-02-16T18:22:49;7.78;;;3.47;;
49626;SDS011;35527;54.616;39.786;2024-02-16T18:25:55;6.97;;;2.67;;
49626;SDS011;35527;54.616;39.786;2024-02-16T18:29:00;8.82;;;2.78;;
49626;SDS011;35527;54.616;39.786;2024-02-16T18:32:03;7.85;;;3.83;;
49626;SDS011;35527;54.616;39.786;2024-02-16T18:35:12;11.10;;;3.08;;
49626;SDS011;35527;54.616;39.786;2024-02-16T18:38:14;6.75;;;2.67;;
49626;SDS011;35527;54.616;39.786;2024-02-16T18:41:17;7.38;;;3.10;;